Decoded Metar for KRKP (ROCKPORT in TX, USA) (IATA:RKP) | Meteo·Mobile Aviation Weather
aviador You're here:

KRKP Decoded Metar

ROCKPORT in TX, USA
Report Time2018-09-22 18:53:00
UTC Time2018-09-22 19:41:12
Flight Rules vfr VFR
WindVRB at 05 kt
Visibility9999 m
Phenomena:N/A
Clouds:Few 021 Hf
Expected CloudBase > 2,800 ft AGL from Temp-Dew spread
CeilingNone
Temp31°C (ISA +16)
Dew Point24°C (66% RH)
Heat Index36.4°C
QNH1012 hPa
Density Alt2,280 ft
Elevation20 ft
Report Wrong Elevation
Raw Report
KRKP 221853Z AUTO VRB05KT 10SM FEW021 31/24 A2989 RMK AO2 SLP122
T03060244=

Extra information for KRKP:More info

Metar Taf Metar & Taf Last 4 Metars F.Rules Stats Wind Profile Meteogram Temp Stats Airport Information Weather charts Add Link Nearby VenuesMetar ALERT Operation Metar Decoded Social comments

AIRNAV info for KRKP